Centennial Airport
KAPA : now visible

Airfield :











YOU CAN JOIN US ON...

 
LOGIN :

Register | Disclaimer

   EN    FR    IT 

 









Legend :    VFR   Marginal VFR   IFR   Intensive IFR   Very Intensive IFR
Visi :
Ceiling :
>= 8 km
>= 3000ft
5 to 8 km
1000 to 3000 ft
1500m to 5 km
500 to 1000 ft
800 to 1500m
200 to 500 ft
< 800m
< 200 ft
Symbols :   Thunderstorms  Fog  Heavy snow  Heavy precipitations  Wind > 20 kt






- Airport Elevation : 5885 ft


KAPA - Centennial

CURRENT METAR :
  • 240253Z 04007KT 10SM BKN013 BKN041 BKN110 M03/M07 A2986 RMK AO2 SLP153 T10331067 51043

EXPIRED METARs :
  • 240153Z 02012KT 10SM FEW070 BKN120 BKN200 M02/M06 A2982 RMK AO2 SLP139 T10171061
  • 240053Z 04008KT 10SM FEW070 FEW100 SCT130 BKN200 02/M06 A2977 RMK AO2 SLP112 T00171061

TAF KAPA
Valid from the 24 at 03:00 until the 25 at 00:00 UTC


240258Z 2403/2424 04008KT P6SM BKN013 OVC080
FM240700 01007KT P6SM OVC008
FM241200 12005KT P6SM BKN014 OVC025
FM241400 10006KT P6SM SCT025 BKN040
FM241700 08006KT P6SM SCT025 BKN045
FM242100 36008KT P6SM FEW040 BKN070
KZDV FIR / North America



MET'MAP, your aeronautical weather chart ! - Copyright ORBIFLY December 2007 - Disclaimer

ORBIFLY MET'MAP TEAM :

Programming & Development : Alexandra Zaïnal
Concept & original design : Baudouin d'Aumeries
Assistance for programming : Marc-Olivier Méhu
Technical & hardware support : Manuel Goepfert

Contact : metmap@orbifly.com




SOURCES & CREDITS :

   NOAA       Earth
Advisory